createdAt,value
2017-12-02T00:00:15.903Z,19.68
2017-12-02T00:02:42.521Z,19.68
2017-12-02T00:05:09.255Z,19.68
2017-12-02T00:07:36.092Z,19.65
2017-12-02T00:10:02.839Z,19.70
2017-12-02T00:12:28.615Z,19.61
2017-12-02T00:14:54.381Z,19.74
2017-12-02T00:17:20.147Z,19.76
2017-12-02T00:19:46.764Z,19.74
2017-12-02T00:22:12.551Z,19.64
2017-12-02T00:24:38.323Z,19.66
2017-12-02T00:27:04.100Z,19.66
2017-12-02T00:29:30.820Z,19.69
2017-12-02T00:31:57.606Z,19.68
2017-12-02T00:34:24.532Z,19.66
2017-12-02T00:36:51.194Z,19.82
2017-12-02T00:39:17.079Z,19.71
2017-12-02T00:41:42.887Z,19.67
2017-12-02T00:44:09.519Z,19.66
2017-12-02T00:46:36.336Z,19.67
2017-12-02T00:49:02.107Z,19.68
2017-12-02T00:51:27.893Z,19.72
2017-12-02T00:53:54.675Z,19.70
2017-12-02T00:56:20.492Z,19.71
2017-12-02T00:58:47.376Z,19.69
2017-12-02T01:01:13.181Z,19.67
2017-12-02T01:03:38.960Z,19.64
2017-12-02T01:06:04.748Z,19.68
2017-12-02T01:08:30.536Z,19.69
2017-12-02T01:10:56.329Z,19.66
2017-12-02T01:13:22.096Z,19.68
2017-12-02T01:15:47.919Z,19.74
2017-12-02T01:18:13.718Z,19.70
2017-12-02T01:20:40.396Z,19.64
2017-12-02T01:23:06.174Z,19.60
2017-12-02T01:25:31.968Z,19.62
2017-12-02T01:27:57.754Z,19.62
2017-12-02T01:30:24.592Z,19.61
2017-12-02T01:32:50.367Z,19.63
2017-12-02T01:35:16.136Z,19.75
2017-12-02T01:37:41.920Z,19.78
2017-12-02T01:40:07.699Z,19.68
2017-12-02T01:42:33.472Z,19.66
2017-12-02T01:44:59.289Z,19.69
2017-12-02T01:47:26.000Z,19.66
2017-12-02T01:49:52.748Z,19.70
2017-12-02T01:52:19.487Z,19.68
2017-12-02T01:54:45.267Z,19.72
2017-12-02T01:57:11.844Z,19.68
2017-12-02T01:59:37.620Z,19.70
2017-12-02T02:02:03.423Z,19.67
2017-12-02T02:04:29.203Z,19.70
2017-12-02T02:06:54.978Z,19.67
2017-12-02T02:09:20.755Z,19.70
2017-12-02T02:11:46.530Z,19.74
2017-12-02T02:14:12.337Z,19.72
2017-12-02T02:16:38.116Z,19.65
2017-12-02T02:19:03.931Z,19.66
2017-12-02T02:21:29.706Z,19.60
2017-12-02T02:23:55.467Z,19.68
2017-12-02T02:26:21.287Z,19.70
2017-12-02T02:28:48.028Z,19.66
2017-12-02T02:31:14.781Z,19.62
2017-12-02T02:33:41.546Z,19.66
2017-12-02T02:36:07.322Z,19.63
2017-12-02T02:38:34.059Z,19.62
2017-12-02T02:40:59.838Z,19.68
2017-12-02T02:43:25.612Z,19.65
2017-12-02T02:45:51.440Z,19.72
2017-12-02T02:48:18.255Z,19.77
2017-12-02T02:50:44.027Z,19.78
2017-12-02T02:53:09.836Z,19.69
2017-12-02T02:55:35.620Z,19.63
2017-12-02T02:58:02.239Z,19.68
2017-12-02T03:00:28.817Z,19.62
2017-12-02T03:02:54.589Z,19.66
2017-12-02T03:05:21.327Z,19.68
2017-12-02T03:07:48.124Z,19.65
2017-12-02T03:10:13.936Z,19.70
2017-12-02T03:12:40.614Z,19.73
2017-12-02T03:15:06.445Z,19.58
2017-12-02T03:17:33.085Z,19.60
2017-12-02T03:19:58.868Z,19.62
2017-12-02T03:22:24.690Z,19.63
2017-12-02T03:24:50.471Z,19.68
2017-12-02T03:27:16.250Z,19.70
2017-12-02T03:29:42.038Z,19.80
2017-12-02T03:32:07.820Z,19.69
2017-12-02T03:34:33.627Z,19.62
2017-12-02T03:36:59.407Z,19.71
2017-12-02T03:39:25.288Z,19.63
2017-12-02T03:41:52.088Z,19.62
2017-12-02T03:44:18.838Z,19.56
2017-12-02T03:46:44.666Z,19.57
2017-12-02T03:49:11.331Z,19.74
2017-12-02T03:51:37.131Z,19.70
2017-12-02T03:54:03.829Z,19.63
2017-12-02T03:56:29.642Z,19.67
2017-12-02T03:58:55.423Z,19.66
2017-12-02T04:01:22.079Z,19.62
2017-12-02T04:03:48.824Z,19.67
2017-12-02T04:06:15.706Z,19.74
2017-12-02T04:08:41.488Z,19.67
2017-12-02T04:11:08.126Z,19.64
2017-12-02T04:13:33.922Z,19.67
2017-12-02T04:16:00.547Z,19.64
2017-12-02T04:18:27.339Z,19.60
2017-12-02T04:20:53.144Z,19.56
2017-12-02T04:23:18.943Z,19.68
2017-12-02T04:25:45.749Z,19.67
2017-12-02T04:28:12.551Z,19.63
2017-12-02T04:30:38.367Z,19.73
2017-12-02T04:33:05.126Z,19.64
2017-12-02T04:35:30.978Z,19.50
2017-12-02T04:37:57.596Z,19.58
2017-12-02T04:40:23.449Z,19.58
2017-12-02T04:42:49.232Z,19.67
2017-12-02T04:45:15.016Z,19.68
2017-12-02T04:47:40.796Z,19.64
2017-12-02T04:50:07.411Z,19.67
2017-12-02T04:52:33.216Z,19.62
2017-12-02T04:54:58.991Z,19.74
2017-12-02T04:57:24.764Z,19.65
2017-12-02T04:59:50.548Z,19.63
2017-12-02T05:02:16.327Z,19.66
2017-12-02T05:04:42.105Z,19.68
2017-12-02T05:07:07.907Z,19.59
2017-12-02T05:09:34.642Z,19.65
2017-12-02T05:12:00.420Z,19.62
2017-12-02T05:14:27.111Z,19.69
2017-12-02T05:16:52.879Z,19.77
2017-12-02T05:19:19.645Z,19.62
2017-12-02T05:21:45.419Z,19.62
2017-12-02T05:24:11.197Z,19.58
2017-12-02T05:26:36.976Z,19.62
2017-12-02T05:29:02.760Z,19.63
2017-12-02T05:31:28.539Z,19.63
2017-12-02T05:33:54.319Z,19.74
2017-12-02T05:36:20.091Z,19.69
2017-12-02T05:38:45.871Z,19.67
2017-12-02T05:41:11.642Z,19.63
2017-12-02T05:43:37.430Z,19.59
2017-12-02T05:46:03.212Z,19.59
2017-12-02T05:48:28.988Z,19.64
2017-12-02T05:50:54.768Z,19.64
2017-12-02T05:53:20.539Z,19.71
2017-12-02T05:55:46.311Z,19.63
2017-12-02T05:58:12.144Z,19.62
2017-12-02T06:00:37.938Z,19.58
2017-12-02T06:03:03.718Z,19.72
2017-12-02T06:05:29.491Z,19.65
2017-12-02T06:07:55.262Z,19.66
2017-12-02T06:10:21.931Z,19.71
2017-12-02T06:12:47.698Z,19.75
2017-12-02T06:15:14.331Z,19.68
2017-12-02T06:17:40.139Z,19.61
2017-12-02T06:20:07.017Z,19.66
2017-12-02T06:22:32.799Z,19.66
2017-12-02T06:24:59.575Z,19.60
2017-12-02T06:27:25.343Z,19.60
2017-12-02T06:29:51.154Z,19.63
2017-12-02T06:32:17.875Z,19.71
2017-12-02T06:34:43.775Z,19.70
2017-12-02T06:37:09.555Z,19.61
2017-12-02T06:39:36.259Z,19.68
2017-12-02T06:42:03.095Z,19.70
2017-12-02T06:44:28.893Z,19.76
2017-12-02T06:46:54.724Z,19.69
2017-12-02T06:49:20.497Z,19.65
2017-12-02T06:51:46.317Z,19.63
2017-12-02T06:54:12.396Z,19.72
2017-12-02T06:56:39.046Z,19.68
2017-12-02T06:59:04.868Z,19.66
2017-12-02T07:01:31.544Z,19.68
2017-12-02T07:03:58.280Z,19.69
2017-12-02T07:06:25.071Z,19.72
2017-12-02T07:08:51.839Z,19.71
2017-12-02T07:11:18.543Z,19.72
2017-12-02T07:13:45.315Z,19.76
2017-12-02T07:16:11.107Z,19.73
2017-12-02T07:18:36.900Z,19.68
2017-12-02T07:21:02.692Z,19.69
2017-12-02T07:23:28.534Z,19.74
2017-12-02T07:25:54.334Z,19.68
2017-12-02T07:28:20.125Z,19.73
2017-12-02T07:30:46.728Z,19.72
2017-12-02T07:33:12.504Z,19.69
2017-12-02T07:35:38.327Z,19.68
2017-12-02T07:38:04.107Z,19.68
2017-12-02T07:40:29.888Z,19.64
2017-12-02T07:42:55.667Z,19.62
2017-12-02T07:45:22.392Z,19.71
2017-12-02T07:47:48.168Z,19.75
2017-12-02T07:50:15.534Z,19.68
2017-12-02T07:52:41.432Z,19.60
2017-12-02T07:55:08.000Z,19.72
2017-12-02T07:57:33.823Z,19.77
2017-12-02T08:00:00.470Z,19.69
2017-12-02T08:02:26.238Z,19.71
2017-12-02T08:04:52.044Z,19.65
2017-12-02T08:07:18.818Z,19.70
2017-12-02T08:09:44.760Z,19.37
2017-12-02T08:12:10.564Z,19.52
2017-12-02T08:14:37.303Z,19.45
2017-12-02T08:17:04.119Z,19.54
2017-12-02T08:19:29.900Z,19.67
2017-12-02T08:21:56.600Z,19.78
2017-12-02T08:24:23.312Z,19.80
2017-12-02T08:26:49.114Z,19.78
2017-12-02T08:29:14.899Z,19.74
2017-12-02T08:31:41.551Z,19.75
2017-12-02T08:34:08.172Z,19.71
2017-12-02T08:36:33.939Z,19.77
2017-12-02T08:39:00.493Z,19.76
2017-12-02T08:41:27.079Z,19.81
2017-12-02T08:43:53.774Z,19.79
2017-12-02T08:46:19.559Z,19.59
2017-12-02T08:48:46.178Z,19.67
2017-12-02T08:51:11.961Z,19.67
2017-12-02T08:53:38.623Z,19.70
2017-12-02T08:56:04.399Z,19.65
2017-12-02T08:58:30.171Z,19.76
2017-12-02T09:00:55.943Z,19.70
2017-12-02T09:03:21.828Z,19.69
2017-12-02T09:05:47.607Z,19.70
2017-12-02T09:08:13.588Z,19.72
2017-12-02T09:10:39.367Z,19.77
2017-12-02T09:13:06.111Z,19.81
2017-12-02T09:15:31.892Z,19.87
2017-12-02T09:17:57.688Z,19.87
2017-12-02T09:20:23.463Z,19.93
2017-12-02T09:22:50.196Z,19.93
2017-12-02T09:25:16.791Z,19.82
2017-12-02T09:27:43.582Z,19.83
2017-12-02T09:30:09.376Z,19.87
2017-12-02T09:32:35.191Z,19.86
2017-12-02T09:35:01.960Z,20.00
2017-12-02T09:37:27.872Z,19.89
2017-12-02T09:39:53.652Z,19.85
2017-12-02T09:42:19.505Z,19.85
2017-12-02T09:44:45.279Z,19.87
2017-12-02T09:47:11.094Z,19.89
2017-12-02T09:49:36.893Z,19.84
2017-12-02T09:52:02.716Z,19.76
2017-12-02T09:54:28.493Z,19.75
2017-12-02T09:56:55.073Z,19.75
2017-12-02T09:59:20.849Z,19.78
2017-12-02T10:01:46.627Z,19.84
2017-12-02T10:04:12.447Z,19.86
2017-12-02T10:06:39.167Z,19.85
2017-12-02T10:09:04.975Z,19.70
2017-12-02T10:11:30.752Z,19.70
2017-12-02T10:13:56.567Z,19.73
2017-12-02T10:16:22.347Z,19.78
2017-12-02T10:18:48.123Z,19.76
2017-12-02T10:21:13.903Z,19.81
2017-12-02T10:23:39.682Z,19.78
2017-12-02T10:26:05.460Z,19.75
2017-12-02T10:28:31.254Z,19.70
2017-12-02T10:30:57.047Z,19.69
2017-12-02T10:33:24.870Z,19.68
2017-12-02T10:35:50.811Z,19.75
2017-12-02T10:38:16.643Z,19.84
2017-12-02T10:40:42.427Z,19.75
2017-12-02T10:43:08.257Z,19.72
2017-12-02T10:45:35.079Z,19.68
2017-12-02T10:48:02.015Z,19.72
2017-12-02T10:50:28.744Z,19.70
2017-12-02T10:52:55.009Z,19.71
2017-12-02T10:55:21.008Z,19.76
2017-12-02T10:57:47.877Z,19.75
2017-12-02T11:00:14.575Z,19.77
2017-12-02T11:02:41.227Z,19.84
2017-12-02T11:05:07.012Z,19.89
2017-12-02T11:07:32.912Z,19.93
2017-12-02T11:09:58.747Z,19.93
2017-12-02T11:12:24.527Z,19.90
2017-12-02T11:14:50.527Z,19.83
2017-12-02T11:17:16.294Z,19.82
2017-12-02T11:19:42.077Z,19.78
2017-12-02T11:22:07.900Z,19.89
2017-12-02T11:24:34.685Z,19.84
2017-12-02T11:27:00.482Z,19.88
2017-12-02T11:29:26.324Z,19.74
2017-12-02T11:31:52.127Z,19.82
2017-12-02T11:34:17.992Z,19.80
2017-12-02T11:36:43.830Z,19.86
2017-12-02T11:39:10.585Z,19.79
2017-12-02T11:41:37.379Z,19.62
2017-12-02T11:44:03.155Z,19.75
2017-12-02T11:46:28.976Z,19.70
2017-12-02T11:48:54.816Z,19.78
2017-12-02T11:51:20.637Z,19.81
2017-12-02T11:53:46.420Z,19.80
2017-12-02T11:56:12.227Z,19.77
2017-12-02T11:58:38.012Z,19.73
2017-12-02T12:01:03.802Z,19.84
2017-12-02T12:03:29.574Z,19.86
2017-12-02T12:05:55.367Z,19.78
2017-12-02T12:08:21.161Z,19.84
2017-12-02T12:10:46.948Z,19.75
2017-12-02T12:13:12.919Z,19.70
2017-12-02T12:15:38.735Z,19.74
2017-12-02T12:18:04.511Z,19.48
2017-12-02T12:20:30.292Z,19.28
2017-12-02T12:22:57.000Z,19.17
2017-12-02T12:25:22.790Z,18.98
2017-12-02T12:27:48.667Z,18.81
2017-12-02T12:30:14.450Z,18.83
2017-12-02T12:32:40.392Z,18.99
2017-12-02T12:35:06.172Z,18.86
2017-12-02T12:37:31.991Z,18.66
2017-12-02T12:39:58.575Z,18.98
2017-12-02T12:42:25.475Z,19.18
2017-12-02T12:44:52.231Z,19.37
2017-12-02T12:47:19.055Z,19.47
2017-12-02T12:49:45.834Z,19.66
2017-12-02T12:52:11.623Z,19.65
2017-12-02T12:54:38.323Z,19.73
2017-12-02T12:57:04.951Z,19.67
2017-12-02T12:59:30.736Z,19.66
2017-12-02T13:01:56.524Z,19.77
2017-12-02T13:04:22.359Z,19.73
2017-12-02T13:06:48.932Z,19.78
2017-12-02T13:09:14.859Z,19.80
2017-12-02T13:11:40.635Z,19.71
2017-12-02T13:14:06.412Z,19.66
2017-12-02T13:16:32.215Z,19.66
2017-12-02T13:18:58.852Z,19.68
2017-12-02T13:21:25.615Z,19.70
2017-12-02T13:23:51.523Z,19.66
2017-12-02T13:26:17.295Z,19.80
2017-12-02T13:28:43.117Z,19.79
2017-12-02T13:31:08.891Z,19.69
2017-12-02T13:33:34.668Z,19.71
2017-12-02T13:36:00.451Z,19.80
2017-12-02T13:38:26.293Z,19.78
2017-12-02T13:40:53.019Z,19.71
2017-12-02T13:43:18.810Z,19.72
2017-12-02T13:45:45.509Z,19.71
2017-12-02T13:48:11.298Z,19.65
2017-12-02T13:50:37.184Z,19.69
2017-12-02T13:53:02.961Z,19.69
2017-12-02T13:55:28.777Z,19.71
2017-12-02T13:57:54.547Z,19.76
2017-12-02T14:00:21.432Z,19.60
2017-12-02T14:02:48.207Z,19.62
2017-12-02T14:05:14.049Z,19.68
2017-12-02T14:07:39.831Z,19.67
2017-12-02T14:10:05.628Z,19.69
2017-12-02T14:12:31.703Z,19.75
2017-12-02T14:14:57.483Z,19.77
2017-12-02T14:17:23.296Z,19.77
2017-12-02T14:19:49.074Z,19.84
2017-12-02T14:22:14.859Z,19.88
2017-12-02T14:24:40.631Z,19.77
2017-12-02T14:27:06.404Z,19.79
2017-12-02T14:29:33.075Z,19.76
2017-12-02T14:31:58.848Z,19.85
2017-12-02T14:34:24.652Z,19.83
2017-12-02T14:36:50.607Z,19.58
2017-12-02T14:39:16.554Z,19.30
2017-12-02T14:41:42.331Z,18.67
2017-12-02T14:44:08.104Z,19.13
2017-12-02T14:46:34.042Z,19.34
2017-12-02T14:48:59.822Z,19.44
2017-12-02T14:51:25.639Z,19.70
2017-12-02T14:53:52.434Z,19.76
2017-12-02T14:56:18.216Z,19.81
2017-12-02T14:58:44.003Z,19.84
2017-12-02T15:01:09.785Z,19.80
2017-12-02T15:03:35.775Z,19.88
2017-12-02T15:06:01.571Z,19.87
2017-12-02T15:08:27.372Z,19.86
2017-12-02T15:10:54.016Z,19.81
2017-12-02T15:13:19.788Z,19.76
2017-12-02T15:15:45.611Z,19.76
2017-12-02T15:18:11.387Z,19.75
2017-12-02T15:20:37.166Z,19.84
2017-12-02T15:23:02.936Z,19.82
2017-12-02T15:25:28.741Z,19.82
2017-12-02T15:27:54.516Z,19.79
2017-12-02T15:30:20.291Z,19.79
2017-12-02T15:32:46.923Z,19.66
2017-12-02T15:35:12.711Z,18.93
2017-12-02T15:37:38.489Z,19.27
2017-12-02T15:40:04.271Z,19.23
2017-12-02T15:42:30.079Z,19.54
2017-12-02T15:44:55.875Z,19.33
2017-12-02T15:47:21.651Z,19.45
2017-12-02T15:49:47.418Z,19.60
2017-12-02T15:52:13.238Z,19.74
2017-12-02T15:54:39.035Z,19.71
2017-12-02T15:57:05.796Z,19.78
2017-12-02T15:59:31.586Z,19.81
2017-12-02T16:01:57.359Z,19.86
2017-12-02T16:04:23.139Z,19.96
2017-12-02T16:06:48.932Z,19.90
2017-12-02T16:09:14.727Z,19.80
2017-12-02T16:11:40.510Z,19.84
2017-12-02T16:14:06.295Z,19.92
2017-12-02T16:16:32.138Z,19.93
2017-12-02T16:18:57.922Z,19.96
2017-12-02T16:21:23.736Z,19.91
2017-12-02T16:23:50.395Z,19.85
2017-12-02T16:26:16.203Z,19.79
2017-12-02T16:28:42.006Z,19.79
2017-12-02T16:31:07.792Z,19.83
2017-12-02T16:33:33.602Z,19.83
2017-12-02T16:35:59.382Z,19.81
2017-12-02T16:38:25.208Z,19.78
2017-12-02T16:40:51.012Z,19.72
2017-12-02T16:43:16.828Z,19.85
2017-12-02T16:45:42.623Z,19.84
2017-12-02T16:48:08.411Z,19.76
2017-12-02T16:50:34.203Z,19.80
2017-12-02T16:53:00.039Z,19.80
2017-12-02T16:55:26.802Z,19.51
2017-12-02T16:57:52.591Z,18.94
2017-12-02T17:00:18.411Z,18.68
2017-12-02T17:02:45.191Z,18.58
2017-12-02T17:05:11.999Z,18.28
2017-12-02T17:07:37.783Z,18.50
2017-12-02T17:10:03.591Z,18.24
2017-12-02T17:12:29.368Z,18.38
2017-12-02T17:14:55.139Z,18.17
2017-12-02T17:17:21.768Z,18.42
2017-12-02T17:19:47.543Z,18.31
2017-12-02T17:22:13.436Z,18.16
2017-12-02T17:24:39.241Z,17.95
2017-12-02T17:27:05.024Z,17.92
2017-12-02T17:29:30.804Z,18.03
2017-12-02T17:31:57.076Z,18.02
2017-12-02T17:34:23.712Z,17.84
2017-12-02T17:36:49.532Z,17.75
2017-12-02T17:39:15.304Z,17.81
2017-12-02T17:41:41.081Z,18.22
2017-12-02T17:44:06.883Z,18.69
2017-12-02T17:46:32.715Z,18.93
2017-12-02T17:48:58.757Z,19.14
2017-12-02T17:51:24.731Z,19.19
2017-12-02T17:53:50.613Z,19.26
2017-12-02T17:56:16.542Z,19.22
2017-12-02T17:58:42.468Z,19.38
2017-12-02T18:01:08.276Z,19.44
2017-12-02T18:03:34.063Z,19.46
2017-12-02T18:05:59.843Z,19.48
2017-12-02T18:08:25.620Z,19.42
2017-12-02T18:10:51.400Z,19.41
2017-12-02T18:13:17.220Z,19.44
2017-12-02T18:15:43.005Z,19.47
2017-12-02T18:18:08.782Z,19.43
2017-12-02T18:20:34.563Z,19.39
2017-12-02T18:23:00.327Z,19.40
2017-12-02T18:25:26.099Z,19.53
2017-12-02T18:27:51.997Z,19.67
2017-12-02T18:30:17.775Z,19.72
2017-12-02T18:32:43.552Z,19.66
2017-12-02T18:35:09.365Z,19.65
2017-12-02T18:37:35.144Z,19.62
2017-12-02T18:40:00.920Z,19.68
2017-12-02T18:42:26.694Z,19.75
2017-12-02T18:44:52.465Z,19.72
2017-12-02T18:47:18.267Z,19.75
2017-12-02T18:49:44.043Z,19.70
2017-12-02T18:52:09.807Z,19.63
2017-12-02T18:54:36.623Z,19.67
2017-12-02T18:57:03.226Z,19.66
2017-12-02T18:59:30.145Z,19.67
2017-12-02T19:01:55.918Z,19.66
2017-12-02T19:04:21.709Z,19.61
2017-12-02T19:06:47.505Z,19.59
2017-12-02T19:09:13.299Z,19.67
2017-12-02T19:11:40.274Z,19.75
2017-12-02T19:14:06.261Z,19.68
2017-12-02T19:16:32.980Z,19.73
2017-12-02T19:19:03.915Z,19.62
2017-12-02T19:21:29.763Z,19.60
2017-12-02T19:23:55.579Z,19.69
2017-12-02T19:26:21.422Z,19.68
2017-12-02T19:28:48.219Z,19.56
2017-12-02T19:31:14.223Z,19.58
2017-12-02T19:33:40.086Z,19.63
2017-12-02T19:36:05.858Z,19.60
2017-12-02T19:38:31.715Z,19.68
2017-12-02T19:40:57.614Z,19.73
2017-12-02T19:43:23.463Z,19.73
2017-12-02T19:45:49.259Z,19.76
2017-12-02T19:48:15.024Z,19.80
2017-12-02T19:50:42.899Z,19.81
2017-12-02T19:53:12.629Z,19.86
2017-12-02T19:55:42.771Z,19.88
2017-12-02T19:58:09.263Z,19.82
2017-12-02T20:00:38.098Z,19.85
2017-12-02T20:03:04.156Z,19.87
2017-12-02T20:05:30.998Z,19.83
2017-12-02T20:07:56.780Z,19.82
2017-12-02T20:10:22.611Z,19.79
2017-12-02T20:12:48.395Z,19.82
2017-12-02T20:15:14.173Z,19.86
2017-12-02T20:17:40.004Z,19.83
2017-12-02T20:20:05.792Z,19.77
2017-12-02T20:22:31.606Z,19.77
2017-12-02T20:24:58.391Z,19.76
2017-12-02T20:27:24.220Z,19.77
2017-12-02T20:29:50.293Z,19.78
2017-12-02T20:32:16.147Z,19.76
2017-12-02T20:34:41.919Z,19.71
2017-12-02T20:37:08.583Z,19.78
2017-12-02T20:39:34.361Z,19.76
2017-12-02T20:42:01.125Z,19.81
2017-12-02T20:44:27.240Z,19.71
2017-12-02T20:46:53.987Z,19.68
2017-12-02T20:49:20.765Z,19.70
2017-12-02T20:51:46.535Z,19.73
2017-12-02T20:54:12.310Z,19.76
2017-12-02T20:56:38.085Z,19.67
2017-12-02T20:59:04.711Z,19.72
2017-12-02T21:01:30.487Z,19.78
2017-12-02T21:03:57.254Z,19.78
2017-12-02T21:06:24.040Z,19.74
2017-12-02T21:08:50.775Z,19.82
2017-12-02T21:11:16.545Z,19.69
2017-12-02T21:13:42.323Z,19.66
2017-12-02T21:16:08.088Z,19.69
2017-12-02T21:18:34.742Z,19.69
2017-12-02T21:21:00.507Z,19.66
2017-12-02T21:23:26.311Z,19.64
2017-12-02T21:25:52.095Z,19.55
2017-12-02T21:28:17.892Z,19.66
2017-12-02T21:30:44.544Z,19.65
2017-12-02T21:33:11.277Z,19.65
2017-12-02T21:35:37.975Z,19.64
2017-12-02T21:38:04.682Z,19.70
2017-12-02T21:40:30.447Z,19.67
2017-12-02T21:42:57.190Z,19.76
2017-12-02T21:45:22.959Z,19.72
2017-12-02T21:47:48.762Z,19.58
2017-12-02T21:50:14.528Z,19.61
2017-12-02T21:52:41.244Z,19.68
2017-12-02T21:55:07.984Z,19.67
2017-12-02T21:57:33.767Z,19.70
2017-12-02T21:59:59.539Z,19.66
2017-12-02T22:02:26.194Z,19.66
2017-12-02T22:04:51.959Z,19.70
2017-12-02T22:07:17.777Z,19.70
2017-12-02T22:09:43.585Z,19.67
2017-12-02T22:12:09.363Z,19.70
2017-12-02T22:14:35.137Z,19.60
2017-12-02T22:17:01.819Z,19.69
2017-12-02T22:19:27.591Z,19.72
2017-12-02T22:21:53.359Z,19.69
2017-12-02T22:24:19.931Z,19.65
2017-12-02T22:26:45.697Z,19.67
2017-12-02T22:29:11.468Z,19.62
2017-12-02T22:31:37.248Z,19.71
2017-12-02T22:34:03.022Z,19.75
2017-12-02T22:36:28.787Z,19.76
2017-12-02T22:38:55.563Z,19.72
2017-12-02T22:41:22.179Z,19.72
2017-12-02T22:43:47.940Z,19.62
2017-12-02T22:46:13.839Z,19.65
2017-12-02T22:48:39.603Z,19.63
2017-12-02T22:51:05.378Z,19.68
2017-12-02T22:53:31.144Z,19.68
2017-12-02T22:55:56.916Z,19.64
2017-12-02T22:58:22.737Z,19.57
2017-12-02T23:00:48.538Z,19.58
2017-12-02T23:03:14.319Z,19.47
2017-12-02T23:05:40.127Z,19.60
2017-12-02T23:08:06.059Z,19.62
2017-12-02T23:10:31.835Z,19.61
2017-12-02T23:12:57.615Z,19.59
2017-12-02T23:15:23.379Z,19.65
2017-12-02T23:17:49.179Z,19.71
2017-12-02T23:20:17.570Z,19.67
2017-12-02T23:22:43.371Z,19.68
2017-12-02T23:25:09.148Z,19.67
2017-12-02T23:27:35.954Z,19.69
2017-12-02T23:30:01.785Z,19.70
2017-12-02T23:32:27.554Z,19.76
2017-12-02T23:34:53.348Z,19.65
2017-12-02T23:37:19.231Z,19.71
2017-12-02T23:39:45.044Z,19.61
2017-12-02T23:42:10.809Z,19.69
2017-12-02T23:44:36.667Z,19.65
2017-12-02T23:47:02.448Z,19.68
2017-12-02T23:49:28.247Z,19.66
2017-12-02T23:51:54.047Z,19.64
2017-12-02T23:54:19.831Z,19.66
2017-12-02T23:56:45.632Z,19.67
2017-12-02T23:59:11.403Z,19.68
